Time;durP1;ratioP1;P1;durP2;ratioP2;P2;SDS_P1;SDS_P2;PMS_P1;PMS_P2;Temp;Humidity;BMP_temperature;BMP_pressure;BME280_temperature;BME280_humidity;BME280_pressure;Samples;Min_cycle;Max_cycle;Signal;HPM_P1;HPM_P2
2022/09/06 00:02:24;;;;;;;7.30;4.70;;;;;;;;;;5064499;28;20029;-80
2022/09/06 00:04:50;;;;;;;11.98;5.97;;;;;;;;;;5065643;28;20028;-81
2022/09/06 00:07:15;;;;;;;13.63;6.88;;;;;;;;;;5065751;28;20217;-81
2022/09/06 00:09:40;;;;;;;14.82;8.65;;;;;;;;;;5065713;28;20261;-79
2022/09/06 00:12:06;;;;;;;11.23;7.88;;;;;;;;;;5065727;28;20091;-79
2022/09/06 00:14:31;;;;;;;7.15;4.25;;;;;;;;;;5065419;28;20048;-79
2022/09/06 00:16:57;;;;;;;9.88;4.20;;;;;;;;;;5065527;28;20025;-79
2022/09/06 00:19:22;;;;;;;5.25;3.80;;;;;;;;;;5065693;28;20028;-79
2022/09/06 00:21:47;;;;;;;5.38;3.25;;;;;;;;;;5065350;28;20037;-80
2022/09/06 00:24:12;;;;;;;7.35;3.15;;;;;;;;;;5065427;28;20028;-80
2022/09/06 00:26:38;;;;;;;7.05;3.05;;;;;;;;;;5065500;28;20021;-80
2022/09/06 00:29:03;;;;;;;5.32;3.03;;;;;;;;;;5065404;28;20021;-79
2022/09/06 00:31:28;;;;;;;6.30;3.10;;;;;;;;;;5065296;28;20020;-80
2022/09/06 00:33:54;;;;;;;4.80;3.50;;;;;;;;;;5064101;28;20028;-81
2022/09/06 00:36:22;;;;;;;6.65;3.22;;;;;;;;;;5065200;28;20130;-81
2022/09/06 00:38:48;;;;;;;7.82;3.70;;;;;;;;;;5065199;28;20025;-80
2022/09/06 00:41:15;;;;;;;9.23;4.00;;;;;;;;;;5064928;28;20036;-80
2022/09/06 00:43:41;;;;;;;7.22;3.65;;;;;;;;;;5064973;28;20248;-82
2022/09/06 00:46:09;;;;;;;5.35;3.40;;;;;;;;;;5063882;28;20043;-81
2022/09/06 00:48:36;;;;;;;6.43;3.58;;;;;;;;;;5065022;28;20032;-80
2022/09/06 00:51:07;;;;;;;6.75;4.10;;;;;;;;;;5065012;28;20025;-81
2022/09/06 00:53:32;;;;;;;7.80;4.10;;;;;;;;;;5064834;28;20305;-81
2022/09/06 00:55:58;;;;;;;6.88;3.97;;;;;;;;;;5064819;28;20036;-81
2022/09/06 00:58:25;;;;;;;10.80;4.20;;;;;;;;;;5063515;28;20023;-81
2022/09/06 01:00:50;;;;;;;5.78;3.88;;;;;;;;;;5064411;28;20052;-80
2022/09/06 01:03:17;;;;;;;7.03;4.18;;;;;;;;;;5064704;28;20025;-82
2022/09/06 01:06:10;;;;;;;7.80;3.78;;;;;;;;;;5064591;28;20104;-80
2022/09/06 01:08:46;;;;;;;7.85;3.53;;;;;;;;;;5064626;28;20031;-81
2022/09/06 01:11:25;;;;;;;6.93;3.83;;;;;;;;;;5064575;28;20347;-81
2022/09/06 01:14:14;;;;;;;7.15;3.97;;;;;;;;;;5063229;28;20017;-82
2022/09/06 01:17:06;;;;;;;6.38;4.00;;;;;;;;;;5044543;28;20113;-81
2022/09/06 01:20:09;;;;;;;5.55;3.65;;;;;;;;;;5064567;28;20027;-81
2022/09/06 01:23:05;;;;;;;5.95;3.50;;;;;;;;;;5063110;28;20220;-81
2022/09/06 01:25:43;;;;;;;6.47;3.40;;;;;;;;;;5063446;28;20025;-82
2022/09/06 01:28:17;;;;;;;8.98;3.90;;;;;;;;;;5063727;28;20021;-82
2022/09/06 01:31:01;;;;;;;6.38;3.80;;;;;;;;;;5063008;28;20201;-82
2022/09/06 01:33:50;;;;;;;5.47;3.60;;;;;;;;;;5064187;28;20048;-82
2022/09/06 01:36:20;;;;;;;5.50;3.53;;;;;;;;;;5062902;28;20021;-81
2022/09/06 01:38:47;;;;;;;7.40;3.70;;;;;;;;;;5064137;28;20051;-81
2022/09/06 01:41:13;;;;;;;9.60;4.28;;;;;;;;;;5064050;28;20060;-80
2022/09/06 01:43:41;;;;;;;5.90;3.60;;;;;;;;;;5064086;28;20021;-81
2022/09/06 01:46:15;;;;;;;7.53;4.10;;;;;;;;;;5064048;28;20078;-82
2022/09/06 01:48:52;;;;;;;6.15;3.83;;;;;;;;;;5063979;28;20024;-81
2022/09/06 01:51:26;;;;;;;6.55;3.90;;;;;;;;;;5064006;28;20063;-80
2022/09/06 01:54:00;;;;;;;11.20;4.37;;;;;;;;;;5063854;28;20021;-81
2022/09/06 01:56:43;;;;;;;6.20;3.97;;;;;;;;;;5063863;28;20093;-80
2022/09/06 01:59:30;;;;;;;9.65;4.50;;;;;;;;;;5062659;28;20135;-82
2022/09/06 02:02:02;;;;;;;8.95;4.20;;;;;;;;;;5062471;28;20044;-81
2022/09/06 02:04:35;;;;;;;8.43;4.25;;;;;;;;;;5063729;28;20036;-81
2022/09/06 02:07:11;;;;;;;8.00;4.43;;;;;;;;;;5062448;28;20012;-82
2022/09/06 02:09:40;;;;;;;9.32;4.00;;;;;;;;;;5063693;28;20028;-81
2022/09/06 02:12:08;;;;;;;9.57;4.22;;;;;;;;;;5063599;28;20032;-81
2022/09/06 02:14:41;;;;;;;6.07;3.65;;;;;;;;;;5063745;28;20313;-81
2022/09/06 02:17:10;;;;;;;9.88;4.13;;;;;;;;;;5063561;28;20021;-80
2022/09/06 02:19:46;;;;;;;6.00;4.10;;;;;;;;;;5063612;28;20376;-81
2022/09/06 02:22:14;;;;;;;10.13;4.28;;;;;;;;;;5063475;28;20059;-81
2022/09/06 02:24:42;;;;;;;6.90;4.05;;;;;;;;;;5062351;28;20017;-80
2022/09/06 02:27:07;;;;;;;7.95;4.15;;;;;;;;;;5063456;28;20027;-81
2022/09/06 02:29:34;;;;;;;7.30;4.03;;;;;;;;;;5063603;28;20024;-81
2022/09/06 02:32:23;;;;;;;5.50;3.65;;;;;;;;;;5063825;28;20017;-81
2022/09/06 02:34:54;;;;;;;7.38;3.67;;;;;;;;;;5063330;28;20224;-82
2022/09/06 02:37:21;;;;;;;10.27;3.58;;;;;;;;;;5063447;28;20028;-82
2022/09/06 02:39:47;;;;;;;6.20;3.50;;;;;;;;;;5067199;28;20343;-81
2022/09/06 02:42:14;;;;;;;6.40;3.58;;;;;;;;;;5067346;28;20032;-82
2022/09/06 02:44:40;;;;;;;5.35;3.70;;;;;;;;;;5066146;28;20052;-81
2022/09/06 02:47:05;;;;;;;7.30;3.60;;;;;;;;;;5067264;28;20063;-81
2022/09/06 02:49:31;;;;;;;6.55;3.70;;;;;;;;;;5067240;28;20052;-81
2022/09/06 02:51:56;;;;;;;7.13;3.65;;;;;;;;;;5067215;28;20020;-82
2022/09/06 02:54:22;;;;;;;6.10;3.40;;;;;;;;;;5067281;28;20017;-82
2022/09/06 02:56:48;;;;;;;7.45;3.78;;;;;;;;;;5065979;28;20029;-81
2022/09/06 02:59:13;;;;;;;6.78;3.58;;;;;;;;;;5067003;28;20040;-82
2022/09/06 03:01:39;;;;;;;7.68;3.95;;;;;;;;;;5066785;28;20052;-82
2022/09/06 03:04:04;;;;;;;8.25;3.50;;;;;;;;;;5066935;28;20040;-81
2022/09/06 03:06:30;;;;;;;6.50;3.53;;;;;;;;;;5067110;28;20236;-81
2022/09/06 03:08:55;;;;;;;6.57;3.78;;;;;;;;;;5065720;28;20051;-81
2022/09/06 03:11:21;;;;;;;8.77;3.50;;;;;;;;;;5066840;28;20025;-81
2022/09/06 03:13:46;;;;;;;10.18;4.20;;;;;;;;;;5066811;28;20339;-81
2022/09/06 03:16:12;;;;;;;8.07;3.75;;;;;;;;;;5066675;28;20048;-82
2022/09/06 03:18:37;;;;;;;8.88;3.60;;;;;;;;;;5066584;28;20021;-82
2022/09/06 03:21:03;;;;;;;6.75;4.00;;;;;;;;;;5066660;28;20048;-82
2022/09/06 03:23:29;;;;;;;14.02;4.30;;;;;;;;;;5066740;28;20020;-82
2022/09/06 03:25:55;;;;;;;9.05;4.25;;;;;;;;;;5066505;28;20021;-82
2022/09/06 03:28:21;;;;;;;6.57;3.85;;;;;;;;;;5066512;28;20090;-81
2022/09/06 03:30:48;;;;;;;8.35;3.80;;;;;;;;;;5066457;28;20024;-81
2022/09/06 03:33:14;;;;;;;7.05;3.65;;;;;;;;;;5066428;28;20025;-81
2022/09/06 03:35:45;;;;;;;7.10;3.67;;;;;;;;;;5066285;28;20370;-80
2022/09/06 03:38:11;;;;;;;7.97;4.20;;;;;;;;;;5066439;28;20048;-79
2022/09/06 03:40:36;;;;;;;9.23;4.78;;;;;;;;;;5065248;28;20025;-80
2022/09/06 03:43:01;;;;;;;11.35;5.35;;;;;;;;;;5066292;28;20090;-80
2022/09/06 03:45:27;;;;;;;9.50;5.00;;;;;;;;;;5066189;28;20021;-80
2022/09/06 03:47:52;;;;;;;11.70;5.55;;;;;;;;;;5064917;28;20021;-81
2022/09/06 03:50:17;;;;;;;10.52;5.43;;;;;;;;;;5065820;28;20040;-80
2022/09/06 03:52:42;;;;;;;12.60;5.40;;;;;;;;;;5066186;28;20052;-80
2022/09/06 03:55:08;;;;;;;14.75;5.32;;;;;;;;;;5065959;28;20017;-80
2022/09/06 03:57:33;;;;;;;8.25;4.85;;;;;;;;;;5066009;28;20027;-79
2022/09/06 03:59:59;;;;;;;8.70;4.40;;;;;;;;;;5065798;28;20017;-81
2022/09/06 04:02:24;;;;;;;7.90;4.40;;;;;;;;;;5065827;28;20067;-81
2022/09/06 04:04:54;;;;;;;9.73;4.80;;;;;;;;;;5065861;28;20095;-80
2022/09/06 04:07:19;;;;;;;6.78;4.28;;;;;;;;;;5065755;28;20017;-80
2022/09/06 04:09:45;;;;;;;12.82;5.50;;;;;;;;;;5065724;28;20028;-81
2022/09/06 04:12:10;;;;;;;11.15;5.60;;;;;;;;;;5065742;28;20024;-81
2022/09/06 04:14:35;;;;;;;11.05;5.05;;;;;;;;;;5065861;28;20021;-81
2022/09/06 04:17:00;;;;;;;7.82;5.15;;;;;;;;;;5065694;28;20028;-82
2022/09/06 04:19:26;;;;;;;8.02;5.03;;;;;;;;;;5065493;28;20036;-81
2022/09/06 04:21:51;;;;;;;9.93;4.57;;;;;;;;;;5065424;28;20028;-81
2022/09/06 04:24:16;;;;;;;9.73;4.40;;;;;;;;;;5065427;28;20029;-79
2022/09/06 04:26:42;;;;;;;6.78;4.45;;;;;;;;;;5065262;28;20021;-81
2022/09/06 04:29:07;;;;;;;6.97;4.60;;;;;;;;;;5065288;28;20025;-81
2022/09/06 04:31:32;;;;;;;6.65;4.50;;;;;;;;;;5065305;28;20024;-82
2022/09/06 04:33:58;;;;;;;7.80;4.50;;;;;;;;;;5065291;28;20213;-80
2022/09/06 04:36:23;;;;;;;9.10;4.80;;;;;;;;;;5065267;28;20060;-80
2022/09/06 04:38:48;;;;;;;6.88;4.20;;;;;;;;;;5065087;28;20233;-82
2022/09/06 04:41:16;;;;;;;7.68;4.10;;;;;;;;;;5065083;28;20225;-79
2022/09/06 04:43:41;;;;;;;7.93;4.65;;;;;;;;;;5065044;28;20031;-80
2022/09/06 04:46:18;;;;;;;8.35;4.30;;;;;;;;;;5064972;28;20025;-81
2022/09/06 04:48:44;;;;;;;11.63;4.78;;;;;;;;;;5065324;28;20017;-80
2022/09/06 04:51:09;;;;;;;9.00;4.65;;;;;;;;;;5063705;28;20085;-80
2022/09/06 04:53:34;;;;;;;6.53;4.50;;;;;;;;;;5063648;28;20029;-81
2022/09/06 04:56:00;;;;;;;9.25;5.05;;;;;;;;;;5064882;28;20056;-80
2022/09/06 04:58:25;;;;;;;10.00;4.47;;;;;;;;;;5064770;28;20045;-81
2022/09/06 05:00:51;;;;;;;6.90;4.32;;;;;;;;;;5064400;28;20040;-81
2022/09/06 05:03:17;;;;;;;7.68;4.28;;;;;;;;;;5064101;28;20020;-80
2022/09/06 05:05:42;;;;;;;9.18;4.50;;;;;;;;;;5064602;28;20021;-81
2022/09/06 05:08:08;;;;;;;7.20;4.28;;;;;;;;;;5064608;28;20028;-81
2022/09/06 05:10:33;;;;;;;8.40;4.25;;;;;;;;;;5064472;28;20048;-82
2022/09/06 05:12:58;;;;;;;8.45;4.10;;;;;;;;;;5064584;28;20265;-81
2022/09/06 05:15:24;;;;;;;7.85;4.68;;;;;;;;;;5064696;28;20084;-81
2022/09/06 05:17:49;;;;;;;9.73;4.50;;;;;;;;;;5064469;28;20039;-82
2022/09/06 05:20:15;;;;;;;6.20;4.25;;;;;;;;;;5063129;28;20048;-81
2022/09/06 05:22:40;;;;;;;11.50;4.47;;;;;;;;;;5063585;28;20029;-80
2022/09/06 05:25:07;;;;;;;7.95;4.38;;;;;;;;;;5064312;28;20200;-80
2022/09/06 05:27:33;;;;;;;7.55;4.82;;;;;;;;;;5062929;28;20028;-82
2022/09/06 05:29:59;;;;;;;9.63;4.68;;;;;;;;;;5064180;28;20044;-79
2022/09/06 05:32:24;;;;;;;6.38;4.32;;;;;;;;;;5063015;28;20024;-82
2022/09/06 05:34:49;;;;;;;7.93;4.78;;;;;;;;;;5064143;28;20119;-82
2022/09/06 05:37:15;;;;;;;8.38;4.35;;;;;;;;;;5062982;28;20033;-82
2022/09/06 05:39:40;;;;;;;7.28;4.50;;;;;;;;;;5063878;28;20020;-81
2022/09/06 05:42:06;;;;;;;6.15;4.10;;;;;;;;;;5063842;28;20029;-82
2022/09/06 05:44:33;;;;;;;13.73;4.60;;;;;;;;;;5063709;28;20028;-79
2022/09/06 05:46:58;;;;;;;12.63;4.53;;;;;;;;;;5063689;28;20044;-81
2022/09/06 05:49:24;;;;;;;13.15;4.68;;;;;;;;;;5062515;28;20321;-79
2022/09/06 05:51:50;;;;;;;8.57;4.22;;;;;;;;;;5063421;28;20017;-82
2022/09/06 05:54:16;;;;;;;9.98;4.20;;;;;;;;;;5062734;28;20055;-80
2022/09/06 05:56:41;;;;;;;7.22;4.35;;;;;;;;;;5063475;28;20021;-80
2022/09/06 05:59:07;;;;;;;11.30;4.70;;;;;;;;;;5063729;28;20020;-81
2022/09/06 06:01:32;;;;;;;13.70;4.47;;;;;;;;;;5063510;28;20045;-81
2022/09/06 06:04:04;;;;;;;9.60;4.38;;;;;;;;;;5063717;28;20028;-80
2022/09/06 06:06:32;;;;;;;10.23;5.07;;;;;;;;;;5063618;28;20021;-81
2022/09/06 06:08:58;;;;;;;8.25;5.20;;;;;;;;;;5063365;28;20021;-81
2022/09/06 06:11:24;;;;;;;9.90;4.80;;;;;;;;;;5063323;28;20343;-84
2022/09/06 06:13:50;;;;;;;14.55;5.20;;;;;;;;;;5063220;28;20313;-82
2022/09/06 06:16:17;;;;;;;12.88;5.40;;;;;;;;;;5063535;28;20025;-84
2022/09/06 06:18:46;;;;;;;12.32;5.22;;;;;;;;;;5063413;28;20021;-84
2022/09/06 06:21:14;;;;;;;9.02;5.53;;;;;;;;;;5063523;28;20305;-85
2022/09/06 06:23:41;;;;;;;12.18;5.80;;;;;;;;;;5063461;28;20028;-81
2022/09/06 06:26:08;;;;;;;14.00;5.85;;;;;;;;;;5062193;28;20045;-80
2022/09/06 06:28:34;;;;;;;9.10;5.55;;;;;;;;;;5063426;28;20084;-80
2022/09/06 06:31:01;;;;;;;14.38;5.40;;;;;;;;;;5063509;28;20032;-81
2022/09/06 06:33:26;;;;;;;11.38;5.90;;;;;;;;;;5063536;28;20020;-80
2022/09/06 06:35:56;;;;;;;9.23;5.35;;;;;;;;;;5063522;28;20021;-80
2022/09/06 06:38:21;;;;;;;10.85;5.78;;;;;;;;;;5063470;28;20021;-79
2022/09/06 06:40:47;;;;;;;12.02;6.47;;;;;;;;;;5063513;28;20044;-80
2022/09/06 06:43:12;;;;;;;14.23;6.25;;;;;;;;;;5062809;28;20199;-80
2022/09/06 06:45:37;;;;;;;18.00;7.18;;;;;;;;;;5063204;28;20213;-80
2022/09/06 06:48:03;;;;;;;16.52;6.18;;;;;;;;;;5063207;28;20308;-81
2022/09/06 06:50:28;;;;;;;16.38;6.03;;;;;;;;;;5063462;28;20339;-81
2022/09/06 06:52:53;;;;;;;10.25;5.70;;;;;;;;;;5063534;28;20021;-82
2022/09/06 06:55:19;;;;;;;9.82;5.45;;;;;;;;;;5063455;28;20017;-82
2022/09/06 06:57:45;;;;;;;10.23;5.63;;;;;;;;;;5061727;28;20094;-81
2022/09/06 07:00:10;;;;;;;8.45;4.82;;;;;;;;;;5063281;28;20100;-81
2022/09/06 07:02:36;;;;;;;9.52;5.00;;;;;;;;;;5061965;28;20040;-80
2022/09/06 07:05:02;;;;;;;9.30;4.95;;;;;;;;;;5063306;28;20088;-80
2022/09/06 07:07:27;;;;;;;9.70;4.93;;;;;;;;;;5062927;28;20013;-81
2022/09/06 07:09:53;;;;;;;8.88;4.80;;;;;;;;;;5063336;28;20093;-80
2022/09/06 07:12:18;;;;;;;11.00;4.75;;;;;;;;;;5063428;28;20029;-80
2022/09/06 07:14:43;;;;;;;13.57;5.28;;;;;;;;;;5063415;28;20066;-81
2022/09/06 07:17:08;;;;;;;9.70;4.97;;;;;;;;;;5063146;28;20047;-82
2022/09/06 07:19:34;;;;;;;9.32;4.80;;;;;;;;;;5061751;28;20013;-81
2022/09/06 07:21:59;;;;;;;7.90;5.15;;;;;;;;;;5062931;28;20074;-81
2022/09/06 07:24:24;;;;;;;10.85;5.28;;;;;;;;;;5063033;28;20027;-81
2022/09/06 07:26:50;;;;;;;9.13;4.70;;;;;;;;;;5066551;28;20052;-81
2022/09/06 07:29:15;;;;;;;7.75;4.35;;;;;;;;;;5066787;28;20021;-81
2022/09/06 07:31:41;;;;;;;8.10;4.63;;;;;;;;;;5066850;28;20021;-80
2022/09/06 07:34:06;;;;;;;7.97;4.45;;;;;;;;;;5066350;28;20025;-80
2022/09/06 07:36:32;;;;;;;8.75;4.80;;;;;;;;;;5066571;28;20016;-80
2022/09/06 07:38:57;;;;;;;11.43;5.18;;;;;;;;;;5066509;28;20017;-81
2022/09/06 07:41:22;;;;;;;12.20;4.97;;;;;;;;;;5065124;28;20123;-80
2022/09/06 07:43:53;;;;;;;10.30;5.10;;;;;;;;;;5066471;28;20342;-81
2022/09/06 07:46:19;;;;;;;10.50;4.78;;;;;;;;;;5066264;28;20047;-81
2022/09/06 07:48:45;;;;;;;10.77;4.78;;;;;;;;;;5066418;28;20325;-81
2022/09/06 07:51:19;;;;;;;10.25;4.60;;;;;;;;;;5066124;28;20147;-81
2022/09/06 07:53:51;;;;;;;8.55;4.53;;;;;;;;;;5066046;28;20045;-81
2022/09/06 07:56:18;;;;;;;9.73;4.65;;;;;;;;;;5066264;28;20020;-80
2022/09/06 07:58:44;;;;;;;10.90;4.78;;;;;;;;;;5066318;28;20028;-81
2022/09/06 08:01:34;;;;;;;10.27;5.00;;;;;;;;;;5066136;28;20049;-81
2022/09/06 08:04:11;;;;;;;8.13;4.03;;;;;;;;;;5066117;28;20036;-81
2022/09/06 08:06:38;;;;;;;8.57;4.35;;;;;;;;;;5066044;28;20096;-81
2022/09/06 08:09:07;;;;;;;10.75;4.00;;;;;;;;;;5065806;28;20033;-81
2022/09/06 08:11:33;;;;;;;11.43;4.35;;;;;;;;;;5065890;28;20051;-82
2022/09/06 08:14:00;;;;;;;9.57;4.20;;;;;;;;;;5065765;28;20048;-81
2022/09/06 08:16:27;;;;;;;8.52;3.90;;;;;;;;;;5064634;28;20268;-82
2022/09/06 08:18:54;;;;;;;13.57;4.28;;;;;;;;;;5065803;28;20021;-81
2022/09/06 08:21:22;;;;;;;7.32;3.58;;;;;;;;;;5065590;28;20036;-81
2022/09/06 08:24:02;;;;;;;15.57;3.70;;;;;;;;;;5064487;28;20021;-81
2022/09/06 08:26:29;;;;;;;9.00;3.58;;;;;;;;;;5065555;28;20063;-82
2022/09/06 08:28:57;;;;;;;9.68;3.60;;;;;;;;;;5065455;28;20083;-81
2022/09/06 08:31:23;;;;;;;7.55;3.33;;;;;;;;;;5065648;28;20084;-82
2022/09/06 08:33:49;;;;;;;7.55;3.38;;;;;;;;;;5065525;28;20031;-82
2022/09/06 08:36:15;;;;;;;9.90;3.42;;;;;;;;;;5065319;28;20084;-81
2022/09/06 08:38:41;;;;;;;8.57;3.40;;;;;;;;;;5064723;28;20028;-81
2022/09/06 08:41:10;;;;;;;7.03;3.17;;;;;;;;;;5064705;28;20313;-79
2022/09/06 08:43:37;;;;;;;8.02;2.78;;;;;;;;;;5064025;28;20035;-80
2022/09/06 08:46:03;;;;;;;8.05;3.15;;;;;;;;;;5064093;28;20031;-81
2022/09/06 08:48:33;;;;;;;5.45;2.60;;;;;;;;;;5065117;28;20078;-82
2022/09/06 08:51:04;;;;;;;6.72;2.97;;;;;;;;;;5065161;28;20027;-81
2022/09/06 08:53:29;;;;;;;10.35;3.00;;;;;;;;;;5065014;28;20047;-82
2022/09/06 08:56:09;;;;;;;5.70;3.05;;;;;;;;;;5064820;28;20305;-82
2022/09/06 08:58:55;;;;;;;6.88;2.65;;;;;;;;;;5064953;28;20024;-81
2022/09/06 09:01:30;;;;;;;7.22;2.75;;;;;;;;;;5060875;28;20108;-81
2022/09/06 09:04:01;;;;;;;8.00;2.90;;;;;;;;;;5064838;28;20021;-81
2022/09/06 09:06:27;;;;;;;7.63;3.10;;;;;;;;;;5064839;28;20364;-81
2022/09/06 09:09:07;;;;;;;9.15;3.40;;;;;;;;;;5064815;28;20028;-81
2022/09/06 09:11:34;;;;;;;11.73;3.20;;;;;;;;;;5064773;28;20017;-80
2022/09/06 09:14:11;;;;;;;11.27;3.45;;;;;;;;;;5064726;28;20017;-81
2022/09/06 09:16:36;;;;;;;7.90;2.40;;;;;;;;;;5064561;28;20025;-81
2022/09/06 09:19:04;;;;;;;6.47;2.60;;;;;;;;;;5063303;28;20024;-80
2022/09/06 09:21:35;;;;;;;7.57;3.10;;;;;;;;;;5064437;28;20029;-81
2022/09/06 09:24:04;;;;;;;7.75;3.22;;;;;;;;;;5064490;28;20028;-80
2022/09/06 09:26:47;;;;;;;7.57;3.15;;;;;;;;;;5064759;28;20100;-81
2022/09/06 09:29:13;;;;;;;5.25;2.78;;;;;;;;;;5064466;28;20017;-80
2022/09/06 09:31:48;;;;;;;6.82;2.80;;;;;;;;;;5064423;28;20096;-79
2022/09/06 09:34:26;;;;;;;;;;;;;;;;;;5064772;28;20024;-80
2022/09/06 09:37:26;;;;;;;8.15;2.90;;;;;;;;;;5064079;28;19913;-80
2022/09/06 09:39:56;;;;;;;10.45;3.30;;;;;;;;;;5064115;28;20074;-79
2022/09/06 09:42:35;;;;;;;10.00;3.35;;;;;;;;;;5063977;28;20358;-81
2022/09/06 09:45:04;;;;;;;7.55;3.75;;;;;;;;;;5064390;28;20052;-80
2022/09/06 09:47:32;;;;;;;10.88;3.35;;;;;;;;;;5063710;28;20332;-80
2022/09/06 09:49:58;;;;;;;10.73;3.60;;;;;;;;;;5062693;28;20028;-81
2022/09/06 09:52:31;;;;;;;8.00;3.58;;;;;;;;;;5061720;28;20029;-80
2022/09/06 09:55:00;;;;;;;16.25;3.78;;;;;;;;;;5063748;28;20341;-78
2022/09/06 09:57:30;;;;;;;7.07;3.85;;;;;;;;;;5063882;28;20025;-79
2022/09/06 09:59:59;;;;;;;6.63;3.28;;;;;;;;;;5063857;28;20025;-80
2022/09/06 10:02:39;;;;;;;7.00;3.55;;;;;;;;;;5063771;28;20040;-80
2022/09/06 10:05:22;;;;;;;7.53;3.22;;;;;;;;;;5063881;28;20084;-79
2022/09/06 10:07:56;;;;;;;7.15;2.90;;;;;;;;;;5063974;28;20025;-80
2022/09/06 10:10:31;;;;;;;9.60;3.17;;;;;;;;;;5062654;28;20217;-80
2022/09/06 10:13:16;;;;;;;;;;;;;;;;;;5062729;28;20090;-80
2022/09/06 10:15:42;;;;;;;6.13;2.88;;;;;;;;;;5062666;28;19909;-79
2022/09/06 10:18:41;;;;;;;8.63;3.00;;;;;;;;;;5063684;28;20028;-81
2022/09/06 10:21:12;;;;;;;7.45;3.10;;;;;;;;;;5063455;28;20025;-80
2022/09/06 10:23:59;;;;;;;6.20;3.17;;;;;;;;;;5062875;28;20021;-80
2022/09/06 10:26:46;;;;;;;6.82;2.80;;;;;;;;;;5063496;28;20021;-81
2022/09/06 10:29:13;;;;;;;6.35;2.70;;;;;;;;;;5063675;28;20032;-81
2022/09/06 10:31:38;;;;;;;7.13;2.97;;;;;;;;;;5063773;28;20091;-81
2022/09/06 10:34:29;;;;;;;6.63;2.80;;;;;;;;;;5063596;28;20024;-80
2022/09/06 10:37:19;;;;;;;4.43;2.60;;;;;;;;;;5063617;28;20324;-79
2022/09/06 10:39:59;;;;;;;6.30;2.63;;;;;;;;;;5063583;28;20032;-80
2022/09/06 10:42:48;;;;;;;8.45;3.25;;;;;;;;;;5062427;28;20029;-79
2022/09/06 10:45:20;;;;;;;7.85;3.17;;;;;;;;;;5062283;28;20079;-81
2022/09/06 10:47:55;;;;;;;9.48;3.00;;;;;;;;;;5062288;28;20314;-80
2022/09/06 10:50:26;;;;;;;6.97;2.97;;;;;;;;;;5063431;28;20029;-81
2022/09/06 10:52:52;;;;;;;8.07;2.80;;;;;;;;;;5062196;28;20224;-80
2022/09/06 10:55:18;;;;;;;6.22;2.60;;;;;;;;;;5063480;28;20092;-81
2022/09/06 10:57:49;;;;;;;4.32;2.55;;;;;;;;;;5063551;28;20017;-82
2022/09/06 11:00:15;;;;;;;3.83;2.40;;;;;;;;;;5064524;28;20032;-80
2022/09/06 11:03:09;;;;;;;5.63;2.50;;;;;;;;;;5067407;28;20047;-80
2022/09/06 11:05:40;;;;;;;6.45;2.50;;;;;;;;;;5067613;28;20032;-80
2022/09/06 11:08:14;;;;;;;6.13;2.80;;;;;;;;;;5066954;28;20044;-80
2022/09/06 11:10:44;;;;;;;5.40;2.60;;;;;;;;;;5066961;28;20092;-82
2022/09/06 11:13:12;;;;;;;6.85;2.60;;;;;;;;;;5067048;28;20021;-80
2022/09/06 11:15:44;;;;;;;6.20;2.55;;;;;;;;;;5067010;28;20108;-81
2022/09/06 11:18:39;;;;;;;5.85;2.92;;;;;;;;;;5067069;28;20080;-80
2022/09/06 11:21:13;;;;;;;5.95;3.00;;;;;;;;;;5065179;28;20029;-81
2022/09/06 11:23:47;;;;;;;6.95;3.00;;;;;;;;;;5066713;28;20305;-81
2022/09/06 11:26:54;;;;;;;5.17;2.83;;;;;;;;;;5066899;28;20025;-82
2022/09/06 11:29:25;;;;;;;6.28;3.20;;;;;;;;;;5058502;28;20256;-81
2022/09/06 11:31:50;;;;;;;7.07;3.00;;;;;;;;;;5066627;28;20367;-81
2022/09/06 11:34:26;;;;;;;6.53;2.60;;;;;;;;;;5065504;28;20029;-81
2022/09/06 11:36:56;;;;;;;5.03;2.80;;;;;;;;;;5066460;28;20025;-82
2022/09/06 11:39:41;;;;;;;8.35;2.92;;;;;;;;;;5066544;28;20028;-82
2022/09/06 11:42:44;;;;;;;11.27;3.00;;;;;;;;;;5066458;28;20099;-82
2022/09/06 11:45:09;;;;;;;7.97;2.97;;;;;;;;;;5065306;28;20035;-82
2022/09/06 11:47:44;;;;;;;8.02;3.30;;;;;;;;;;5066365;28;20190;-81
2022/09/06 11:50:18;;;;;;;6.25;2.78;;;;;;;;;;5066265;28;20021;-81
2022/09/06 11:53:05;;;;;;;6.78;3.00;;;;;;;;;;5066353;28;20194;-81
2022/09/06 11:55:30;;;;;;;7.45;2.95;;;;;;;;;;5066112;28;20021;-81
2022/09/06 11:57:58;;;;;;;7.07;3.00;;;;;;;;;;5066034;28;20017;-80
2022/09/06 12:00:25;;;;;;;6.78;3.10;;;;;;;;;;5065869;28;20041;-83
2022/09/06 12:02:51;;;;;;;4.90;2.88;;;;;;;;;;5066183;28;20029;-81
2022/09/06 12:05:26;;;;;;;5.53;2.60;;;;;;;;;;5066247;28;20021;-82
2022/09/06 12:08:13;;;;;;;8.05;2.78;;;;;;;;;;5065922;28;20029;-80
2022/09/06 12:10:38;;;;;;;5.47;2.25;;;;;;;;;;5065492;28;20032;-81
2022/09/06 12:13:38;;;;;;;3.20;1.92;;;;;;;;;;5066038;28;20084;-80
2022/09/06 12:16:04;;;;;;;3.75;2.20;;;;;;;;;;5064813;28;20035;-81
2022/09/06 12:18:42;;;;;;;6.65;2.38;;;;;;;;;;5065837;28;20025;-81
2022/09/06 12:21:09;;;;;;;5.38;2.20;;;;;;;;;;5064604;28;20306;-81
2022/09/06 12:23:34;;;;;;;5.60;2.17;;;;;;;;;;5065712;28;20304;-82
2022/09/06 12:26:04;;;;;;;5.13;2.22;;;;;;;;;;5065709;28;20031;-80
2022/09/06 12:28:38;;;;;;;4.82;2.20;;;;;;;;;;5065626;28;20092;-81
2022/09/06 12:31:32;;;;;;;5.75;2.10;;;;;;;;;;5065607;28;20099;-81
2022/09/06 12:34:04;;;;;;;4.22;2.00;;;;;;;;;;5065421;28;20213;-81
2022/09/06 12:36:30;;;;;;;7.60;2.13;;;;;;;;;;5064461;28;20040;-80
2022/09/06 12:38:57;;;;;;;4.15;2.08;;;;;;;;;;5064391;28;20043;-81
2022/09/06 12:41:26;;;;;;;5.57;2.10;;;;;;;;;;5065232;28;20029;-81
2022/09/06 12:43:54;;;;;;;4.75;2.28;;;;;;;;;;5065297;28;20032;-81
2022/09/06 12:46:21;;;;;;;4.63;2.10;;;;;;;;;;5065219;28;20347;-81
2022/09/06 12:49:11;;;;;;;5.57;1.92;;;;;;;;;;5065245;28;20017;-79
2022/09/06 12:51:39;;;;;;;3.95;2.10;;;;;;;;;;5065184;28;20025;-81
2022/09/06 12:54:16;;;;;;;5.50;2.10;;;;;;;;;;5065136;28;20134;-79
2022/09/06 12:56:41;;;;;;;4.57;2.00;;;;;;;;;;5065050;28;20212;-80
2022/09/06 12:59:18;;;;;;;4.60;2.20;;;;;;;;;;5065019;28;20052;-80
2022/09/06 13:02:05;;;;;;;5.88;2.20;;;;;;;;;;5063568;28;20072;-81
2022/09/06 13:04:41;;;;;;;7.10;2.00;;;;;;;;;;5064837;28;20028;-80
2022/09/06 13:07:13;;;;;;;5.53;2.10;;;;;;;;;;5063736;28;20040;-80
2022/09/06 13:09:43;;;;;;;3.13;1.83;;;;;;;;;;5063334;28;20236;-81
2022/09/06 13:12:30;;;;;;;5.10;2.17;;;;;;;;;;5063777;28;20025;-81
2022/09/06 13:15:00;;;;;;;3.38;1.80;;;;;;;;;;5064871;28;20059;-81
2022/09/06 13:17:28;;;;;;;4.20;1.77;;;;;;;;;;5064973;28;20032;-81
2022/09/06 13:19:57;;;;;;;5.53;1.80;;;;;;;;;;5064640;28;20025;-81
2022/09/06 13:22:46;;;;;;;3.03;1.80;;;;;;;;;;5063666;28;20020;-79
2022/09/06 13:25:14;;;;;;;4.45;1.77;;;;;;;;;;5064352;28;20087;-82
2022/09/06 13:27:45;;;;;;;5.05;1.70;;;;;;;;;;5055231;28;20029;-81
2022/09/06 13:30:37;;;;;;;3.50;1.70;;;;;;;;;;5061823;28;20032;-81
2022/09/06 13:33:05;;;;;;;3.53;1.70;;;;;;;;;;5064259;28;20210;-82
2022/09/06 13:35:34;;;;;;;2.85;1.50;;;;;;;;;;5063341;28;20025;-81
2022/09/06 13:38:51;;;;;;;3.88;1.70;;;;;;;;;;5064382;28;20021;-81
2022/09/06 13:41:25;;;;;;;4.38;1.77;;;;;;;;;;5052156;28;20090;-80
2022/09/06 13:44:17;;;;;;;2.92;1.60;;;;;;;;;;5064182;28;20044;-81
2022/09/06 13:46:43;;;;;;;2.90;1.48;;;;;;;;;;5064142;28;20025;-81
2022/09/06 13:49:08;;;;;;;2.53;1.70;;;;;;;;;;5064083;28;20049;-81
2022/09/06 13:51:37;;;;;;;4.57;1.70;;;;;;;;;;5062844;28;20029;-81
2022/09/06 13:54:09;;;;;;;4.43;1.60;;;;;;;;;;5061641;28;20317;-79
2022/09/06 13:56:35;;;;;;;3.80;1.73;;;;;;;;;;5063490;28;20216;-81
2022/09/06 13:59:01;;;;;;;3.53;1.60;;;;;;;;;;5063802;28;20017;-79
2022/09/06 14:01:26;;;;;;;2.58;1.50;;;;;;;;;;5063733;28;20090;-81
2022/09/06 14:03:53;;;;;;;2.75;1.80;;;;;;;;;;5063146;28;20249;-81
2022/09/06 14:06:19;;;;;;;4.20;1.80;;;;;;;;;;5062649;28;20021;-81
2022/09/06 14:08:44;;;;;;;3.78;1.70;;;;;;;;;;5063764;28;20058;-81
2022/09/06 14:11:12;;;;;;;2.72;1.67;;;;;;;;;;5063626;28;20289;-81
2022/09/06 14:13:37;;;;;;;2.42;1.40;;;;;;;;;;5063773;28;20291;-79
2022/09/06 14:16:04;;;;;;;6.22;1.70;;;;;;;;;;5062571;28;20021;-80
2022/09/06 14:18:30;;;;;;;2.38;1.48;;;;;;;;;;5063673;28;20212;-80
2022/09/06 14:20:57;;;;;;;3.22;1.60;;;;;;;;;;5062525;28;20021;-80
2022/09/06 14:23:23;;;;;;;2.92;1.60;;;;;;;;;;5064244;28;20025;-80
2022/09/06 14:26:02;;;;;;;2.72;1.60;;;;;;;;;;5062342;28;20247;-81
2022/09/06 14:28:31;;;;;;;4.15;1.38;;;;;;;;;;5063589;28;20374;-81
2022/09/06 14:30:57;;;;;;;2.58;1.50;;;;;;;;;;5063623;28;20017;-81
2022/09/06 14:33:22;;;;;;;2.38;1.42;;;;;;;;;;5063506;28;20017;-80
2022/09/06 14:35:48;;;;;;;5.93;1.60;;;;;;;;;;5067321;28;20028;-81
2022/09/06 14:38:14;;;;;;;2.50;1.55;;;;;;;;;;5067473;28;20327;-81
2022/09/06 14:40:44;;;;;;;3.80;1.80;;;;;;;;;;5067834;28;20084;-80
2022/09/06 14:43:10;;;;;;;3.70;1.70;;;;;;;;;;5067181;28;20025;-81
2022/09/06 14:45:36;;;;;;;3.08;1.50;;;;;;;;;;5065507;28;20028;-80
2022/09/06 14:48:02;;;;;;;2.72;1.60;;;;;;;;;;5066223;28;20056;-81
2022/09/06 14:50:28;;;;;;;3.45;1.83;;;;;;;;;;5066448;28;20089;-81
2022/09/06 14:52:53;;;;;;;3.47;1.65;;;;;;;;;;5066867;28;20025;-80
2022/09/06 14:55:20;;;;;;;3.55;1.52;;;;;;;;;;5066758;28;20082;-79
2022/09/06 14:57:46;;;;;;;4.25;1.90;;;;;;;;;;5066315;28;20088;-82
2022/09/06 15:00:12;;;;;;;7.03;1.80;;;;;;;;;;5066840;28;20037;-81